Time;durP1;ratioP1;P1;durP2;ratioP2;P2;SDS_P1;SDS_P2;PMS_P1;PMS_P2;Temp;Humidity;BMP_temperature;BMP_pressure;BME280_temperature;BME280_humidity;BME280_pressure;Samples;Min_cycle;Max_cycle;Signal;HPM_P1;HPM_P2
2023/05/27 00:02:05;;;;;;;4.57;2.20;;;;;;;10.24;70.48;102816.66;5053891;28;20055;-88
2023/05/27 00:04:30;;;;;;;4.07;2.23;;;;;;;10.18;67.11;102823.53;5057611;28;20072;-87
2023/05/27 00:06:56;;;;;;;4.87;2.20;;;;;;;10.22;67.86;102826.16;5072926;28;20124;-88
2023/05/27 00:09:21;;;;;;;2.67;1.90;;;;;;;10.21;66.82;102822.69;5054160;28;20032;-88
2023/05/27 00:11:46;;;;;;;4.03;2.10;;;;;;;10.12;69.35;102810.41;5053368;28;20024;-89
2023/05/27 00:14:12;;;;;;;6.03;2.30;;;;;;;10.14;67.81;102829.50;5073878;28;20055;-87
2023/05/27 00:16:37;;;;;;;4.73;2.33;;;;;;;10.11;67.78;102825.97;5072798;28;20546;-88
2023/05/27 00:19:03;;;;;;;3.67;2.40;;;;;;;10.07;68.87;102829.34;5072536;28;20021;-87
2023/05/27 00:21:28;;;;;;;4.60;2.20;;;;;;;10.01;70.20;102818.03;5073041;28;20537;-88
2023/05/27 00:23:53;;;;;;;3.67;1.90;;;;;;;9.86;68.76;102800.41;5071996;28;20025;-87
2023/05/27 00:26:19;;;;;;;3.77;2.00;;;;;;;9.94;67.44;102812.69;5073402;28;20024;-88
2023/05/27 00:28:44;;;;;;;2.73;1.80;;;;;;;9.96;67.61;102811.84;5079299;28;20047;-88
2023/05/27 00:31:10;;;;;;;2.13;1.63;;;;;;;9.91;69.13;102810.03;5072681;28;20654;-88
2023/05/27 00:33:35;;;;;;;4.30;1.70;;;;;;;9.91;67.16;102817.81;5073053;28;20032;-88
2023/05/27 00:36:00;;;;;;;4.73;2.00;;;;;;;9.86;67.42;102813.38;5073276;28;20028;-88
2023/05/27 00:38:25;;;;;;;2.53;1.90;;;;;;;9.83;67.39;102807.28;5072334;28;20495;-89
2023/05/27 00:40:53;;;;;;;2.63;1.77;;;;;;;9.79;68.94;102808.94;5072994;28;20119;-87
2023/05/27 00:43:18;;;;;;;2.92;2.00;;;;;;;9.80;69.31;102807.19;5073439;28;20393;-88
2023/05/27 00:45:44;;;;;;;4.87;2.23;;;;;;;9.71;71.67;102813.97;5070434;28;20021;-87
2023/05/27 00:48:09;;;;;;;5.17;2.10;;;;;;;9.69;68.90;102820.84;5070887;28;20068;-87
2023/05/27 00:50:35;;;;;;;4.43;2.10;;;;;;;9.65;68.23;102813.84;5056585;28;20025;-87
2023/05/27 00:53:01;;;;;;;4.47;2.00;;;;;;;9.63;68.44;102804.28;5056608;28;20036;-88
2023/05/27 00:55:26;;;;;;;6.80;2.37;;;;;;;9.54;69.60;102802.41;5057257;28;20036;-87
2023/05/27 00:57:54;;;;;;;6.07;2.43;;;;;;;9.56;68.62;102808.50;5056676;28;20032;-88
2023/05/27 01:00:21;;;;;;;7.00;2.47;;;;;;;9.49;71.72;102806.59;5056319;28;20444;-87
2023/05/27 01:02:46;;;;;;;11.70;3.00;;;;;;;9.37;72.48;102807.22;5058968;28;20409;-87
2023/05/27 01:05:15;;;;;;;7.83;2.80;;;;;;;9.29;72.66;102798.41;5065054;28;20021;-87
2023/05/27 01:08:19;;;;;;;9.23;2.92;;;;;;;9.21;73.71;102799.09;5066952;28;20033;-88
2023/05/27 01:10:50;;;;;;;14.68;3.92;;;;;;;9.07;74.49;102805.69;5057160;28;20029;-87
2023/05/27 01:13:44;;;;;;;12.48;3.50;;;;;;;8.95;75.20;102806.31;5056289;28;20107;-87
2023/05/27 01:16:16;;;;;;;12.75;3.95;;;;;;;8.90;75.23;102803.59;5070348;28;20543;-87
2023/05/27 01:18:48;;;;;;;13.70;3.70;;;;;;;8.77;76.46;102792.09;5074978;28;20120;-86
2023/05/27 01:21:18;;;;;;;11.63;3.80;;;;;;;8.73;76.51;102795.44;5075801;28;20051;-87
2023/05/27 01:23:47;;;;;;;10.95;3.80;;;;;;;8.69;76.67;102785.84;5076590;28;20048;-87
2023/05/27 01:26:13;;;;;;;14.88;3.72;;;;;;;8.64;77.31;102788.31;5076518;28;20091;-87
2023/05/27 01:28:38;;;;;;;11.83;3.80;;;;;;;8.67;76.98;102790.09;5074680;28;20101;-86
2023/05/27 01:31:41;;;;;;;12.50;3.40;;;;;;;8.62;77.96;102792.59;5065840;28;20037;-87
2023/05/27 01:34:14;;;;;;;12.10;3.83;;;;;;;8.58;77.90;102784.72;5049609;28;20037;-87
2023/05/27 01:36:45;;;;;;;8.90;3.40;;;;;;;8.64;76.66;102790.06;5055666;28;20143;-87
2023/05/27 01:39:12;;;;;;;16.73;4.20;;;;;;;8.56;77.86;102787.28;5055473;28;20025;-88
2023/05/27 01:41:38;;;;;;;;;;;;;;;8.58;76.11;102784.72;5055235;28;20094;-87
2023/05/27 01:44:04;;;;;;;15.05;3.83;;;;;;;8.49;78.80;102778.47;5067985;28;19966;-87
2023/05/27 01:46:29;;;;;;;14.18;4.25;;;;;;;8.46;79.16;102780.94;5075296;28;20028;-86
2023/05/27 01:48:55;;;;;;;13.17;4.03;;;;;;;8.45;78.13;102776.63;5074690;28;20035;-86
2023/05/27 01:51:20;;;;;;;20.60;4.90;;;;;;;8.27;80.14;102777.06;5075328;28;20038;-86
2023/05/27 01:53:45;;;;;;;13.10;4.10;;;;;;;8.30;78.46;102771.06;5075612;28;20036;-86
2023/05/27 01:56:11;;;;;;;12.90;3.80;;;;;;;8.34;79.15;102781.53;5075002;28;20028;-87
2023/05/27 01:58:36;;;;;;;11.90;3.90;;;;;;;8.25;80.00;102777.81;5075218;28;20032;-87
2023/05/27 02:01:01;;;;;;;11.00;3.60;;;;;;;8.21;80.15;102769.13;5075802;28;20077;-87
2023/05/27 02:03:26;;;;;;;18.10;4.32;;;;;;;8.16;80.77;102770.72;5059052;28;20033;-87
2023/05/27 02:05:52;;;;;;;14.07;4.67;;;;;;;8.08;80.14;102756.69;5055504;28;20025;-87
2023/05/27 02:08:17;;;;;;;10.13;3.40;;;;;;;8.12;80.40;102766.31;5055193;28;20392;-87
2023/05/27 02:10:43;;;;;;;17.67;4.50;;;;;;;8.02;82.21;102772.94;5059108;28;20024;-86
2023/05/27 02:13:08;;;;;;;14.33;4.37;;;;;;;7.98;81.86;102769.41;5075311;28;20512;-87
2023/05/27 02:15:33;;;;;;;16.10;4.00;;;;;;;7.99;80.85;102768.56;5058823;28;20041;-86
2023/05/27 02:18:01;;;;;;;17.23;4.50;;;;;;;7.95;81.89;102776.22;5054019;28;20037;-86
2023/05/27 02:20:27;;;;;;;15.20;4.55;;;;;;;7.92;82.10;102773.53;5055185;28;20029;-87
2023/05/27 02:22:54;;;;;;;15.00;4.47;;;;;;;7.96;82.04;102777.97;5053667;28;20029;-87
2023/05/27 02:25:19;;;;;;;10.60;3.70;;;;;;;7.97;81.60;102766.78;5054532;28;20111;-87
2023/05/27 02:27:48;;;;;;;14.00;4.07;;;;;;;7.92;82.30;102776.13;5054790;28;20457;-87
2023/05/27 02:30:16;;;;;;;13.30;4.25;;;;;;;7.96;81.35;102778.81;5055077;28;20025;-87
2023/05/27 02:32:48;;;;;;;14.25;4.43;;;;;;;7.89;82.26;102770.03;5053849;28;20377;-87
2023/05/27 02:35:16;;;;;;;15.02;4.05;;;;;;;7.96;82.18;102771.06;5055259;28;20025;-87
2023/05/27 02:37:41;;;;;;;14.48;4.10;;;;;;;7.96;81.75;102772.78;5054412;28;20113;-87
2023/05/27 02:40:09;;;;;;;15.00;3.90;;;;;;;7.90;82.77;102770.91;5059903;28;20056;-87
2023/05/27 02:42:34;;;;;;;11.98;4.13;;;;;;;7.86;83.00;102775.13;5063250;28;20017;-87
2023/05/27 02:45:00;;;;;;;14.30;4.53;;;;;;;7.86;82.87;102785.47;5064365;28;20020;-87
2023/05/27 02:47:25;;;;;;;12.43;4.13;;;;;;;7.81;82.15;102779.28;5074736;28;20154;-87
2023/05/27 02:49:50;;;;;;;15.97;4.60;;;;;;;7.80;83.26;102777.53;5074213;28;20051;-87
2023/05/27 02:52:16;;;;;;;13.63;3.70;;;;;;;7.78;82.70;102774.03;5073615;28;20036;-87
2023/05/27 02:54:41;;;;;;;18.33;4.97;;;;;;;7.76;83.53;102780.88;5074464;28;20434;-87
2023/05/27 02:57:06;;;;;;;15.63;4.80;;;;;;;7.71;84.26;102785.03;5073260;28;20102;-88
2023/05/27 02:59:32;;;;;;;12.07;4.30;;;;;;;7.75;83.78;102792.06;5074810;28;20024;-87
2023/05/27 03:01:57;;;;;;;15.57;4.75;;;;;;;7.73;83.74;102792.00;5074857;28;20534;-87
2023/05/27 03:04:22;;;;;;;10.73;4.10;;;;;;;7.72;83.73;102781.63;5075072;28;20028;-88
2023/05/27 03:06:47;;;;;;;15.80;4.68;;;;;;;7.71;84.04;102785.91;5072558;28;20119;-87
2023/05/27 03:09:14;;;;;;;16.80;4.72;;;;;;;7.66;84.61;102786.59;5074420;28;20112;-86
2023/05/27 03:11:39;;;;;;;17.90;4.75;;;;;;;7.59;84.80;102788.16;5062283;28;20056;-87
2023/05/27 03:14:08;;;;;;;18.55;5.07;;;;;;;7.50;85.47;102793.94;5052914;28;20045;-86
2023/05/27 03:16:34;;;;;;;13.80;4.70;;;;;;;7.55;85.59;102794.06;5053656;28;20025;-87
2023/05/27 03:18:59;;;;;;;12.83;4.83;;;;;;;7.51;85.96;102793.09;5054147;28;20051;-88
2023/05/27 03:21:24;;;;;;;17.60;4.60;;;;;;;7.55;85.24;102796.66;5053326;28;20112;-88
2023/05/27 03:23:50;;;;;;;15.77;5.33;;;;;;;7.52;85.86;102791.38;5053724;28;20033;-86
2023/05/27 03:26:15;;;;;;;16.40;5.00;;;;;;;7.46;86.34;102798.97;5054067;28;20053;-87
2023/05/27 03:28:40;;;;;;;18.23;4.80;;;;;;;7.46;86.75;102796.38;5053272;28;20021;-87
2023/05/27 03:31:06;;;;;;;15.93;5.27;;;;;;;7.49;85.09;102786.13;5053785;28;20064;-88
2023/05/27 03:33:31;;;;;;;15.65;4.72;;;;;;;7.45;86.30;102782.56;5053544;28;20029;-88
2023/05/27 03:35:56;;;;;;;17.10;4.65;;;;;;;7.45;86.57;102782.56;5053220;28;20031;-87
2023/05/27 03:38:22;;;;;;;16.02;4.80;;;;;;;7.43;86.10;102773.91;5054064;28;20027;-88
2023/05/27 03:40:47;;;;;;;15.17;4.90;;;;;;;7.41;86.73;102781.63;5056273;28;20032;-88
2023/05/27 03:43:12;;;;;;;16.75;4.90;;;;;;;7.37;87.09;102768.56;5073798;28;20034;-86
2023/05/27 03:45:37;;;;;;;17.43;5.30;;;;;;;7.35;87.24;102776.28;5073586;28;20031;-87
2023/05/27 03:48:03;;;;;;;20.60;5.80;;;;;;;7.32;87.38;102770.16;5073007;28;20031;-87
2023/05/27 03:50:28;;;;;;;17.38;4.80;;;;;;;7.36;87.18;102777.16;5074228;28;20052;-88
2023/05/27 03:52:53;;;;;;;13.30;4.50;;;;;;;7.30;86.37;102756.31;5062512;28;20060;-87
2023/05/27 03:55:20;;;;;;;18.87;5.20;;;;;;;7.33;86.96;102759.88;5052658;28;20107;-88
2023/05/27 03:57:46;;;;;;;18.88;5.35;;;;;;;7.32;87.56;102758.13;5053000;28;20103;-87
2023/05/27 04:00:12;;;;;;;18.42;5.63;;;;;;;7.30;88.08;102766.66;5053326;28;20064;-87
2023/05/27 04:02:38;;;;;;;19.17;6.37;;;;;;;7.29;87.76;102764.91;5052736;28;20017;-87
2023/05/27 04:05:03;;;;;;;17.40;4.90;;;;;;;7.35;86.90;102758.22;5053801;28;20052;-87
2023/05/27 04:07:29;;;;;;;13.65;4.80;;;;;;;7.27;87.98;102751.91;5053437;28;20021;-88
2023/05/27 04:09:54;;;;;;;16.93;5.13;;;;;;;7.39;87.29;102761.75;5052603;28;20025;-87
2023/05/27 04:12:20;;;;;;;19.95;5.32;;;;;;;7.41;87.39;102765.25;5069606;28;20032;-87
2023/05/27 04:14:45;;;;;;;14.90;4.57;;;;;;;7.44;86.53;102760.16;5072592;28;20127;-87
2023/05/27 04:17:11;;;;;;;15.40;4.65;;;;;;;7.47;86.95;102765.41;5070606;28;20134;-86
2023/05/27 04:19:36;;;;;;;12.13;4.27;;;;;;;7.51;86.44;102758.63;5072812;28;20012;-87
2023/05/27 04:22:02;;;;;;;12.20;4.30;;;;;;;7.51;86.82;102756.94;5073024;28;20020;-87
2023/05/27 04:24:27;;;;;;;12.67;4.47;;;;;;;7.51;87.19;102750.88;5072539;28;20025;-87
2023/05/27 04:26:52;;;;;;;20.67;5.90;;;;;;;7.47;87.79;102759.41;5072998;28;20391;-86
2023/05/27 04:29:18;;;;;;;15.57;5.30;;;;;;;7.36;87.73;102741.88;5073065;28;20013;-86
2023/05/27 04:31:46;;;;;;;18.23;5.23;;;;;;;7.47;87.67;102756.81;5072047;28;20029;-87
2023/05/27 04:34:11;;;;;;;16.25;5.30;;;;;;;7.49;86.91;102748.25;5073233;28;20488;-87
2023/05/27 04:36:37;;;;;;;14.83;5.10;;;;;;;7.53;87.26;102749.22;5072680;28;20021;-87
2023/05/27 04:39:03;;;;;;;16.80;5.00;;;;;;;7.51;88.07;102751.78;5072471;28;20020;-86
2023/05/27 04:41:28;;;;;;;15.40;4.95;;;;;;;7.57;87.66;102753.66;5072928;28;20024;-87
2023/05/27 04:43:56;;;;;;;16.23;5.20;;;;;;;7.59;87.51;102744.25;5072773;28;20055;-87
2023/05/27 04:46:23;;;;;;;18.95;5.32;;;;;;;7.61;87.64;102737.38;5068534;28;20492;-87
2023/05/27 04:48:50;;;;;;;;;;;;;;;7.63;87.46;102740.03;5053246;28;20033;-87
2023/05/27 04:51:17;;;;;;;20.45;6.55;;;;;;;7.47;88.04;102729.25;5052480;28;19955;-87
2023/05/27 04:53:56;;;;;;;20.83;6.28;;;;;;;7.58;88.29;102738.19;5056110;28;20436;-87
2023/05/27 04:56:21;;;;;;;20.17;6.20;;;;;;;7.49;88.09;102721.53;5052339;28;20028;-86
2023/05/27 04:58:48;;;;;;;21.97;6.17;;;;;;;7.53;88.27;102721.69;5051641;28;20013;-86
2023/05/27 05:01:24;;;;;;;;;;;;;;;7.63;88.17;102730.56;5052998;28;20386;-86
2023/05/27 05:04:02;;;;;;;18.83;5.25;;;;;;;7.72;87.81;102733.38;5051948;28;19913;-85
2023/05/27 05:06:28;;;;;;;13.93;5.00;;;;;;;7.78;87.50;102727.50;5051612;28;20029;-86
2023/05/27 05:08:53;;;;;;;18.90;6.13;;;;;;;7.79;87.15;102726.66;5051605;28;20360;-86
2023/05/27 05:11:19;;;;;;;17.80;5.53;;;;;;;7.86;87.36;102733.78;5052626;28;20060;-86
2023/05/27 05:13:44;;;;;;;17.90;5.67;;;;;;;7.93;87.19;102729.63;5051098;28;20021;-85
2023/05/27 05:16:10;;;;;;;20.43;6.00;;;;;;;7.88;86.60;102713.97;5053345;28;20017;-84
2023/05/27 05:18:35;;;;;;;18.63;6.00;;;;;;;7.99;87.01;102734.94;5072170;28;20085;-86
2023/05/27 05:21:00;;;;;;;16.77;5.23;;;;;;;8.05;86.32;102729.06;5071189;28;20032;-83
2023/05/27 05:23:26;;;;;;;20.05;5.97;;;;;;;8.11;86.52;102734.38;5072003;28;20037;-89
2023/05/27 05:25:57;;;;;;;18.50;5.80;;;;;;;8.07;86.93;102732.56;5071907;28;20029;-86
2023/05/27 05:28:23;;;;;;;19.42;5.70;;;;;;;8.12;86.51;102725.78;5072330;28;20024;-89
2023/05/27 05:30:48;;;;;;;16.80;5.40;;;;;;;8.24;86.42;102737.28;5072951;28;20069;-88
2023/05/27 05:33:13;;;;;;;13.23;5.17;;;;;;;8.32;85.76;102728.88;5074361;28;20087;-88
2023/05/27 05:35:38;;;;;;;16.50;5.43;;;;;;;8.40;85.46;102734.25;5076093;28;20075;-88
2023/05/27 05:38:04;;;;;;;18.25;5.93;;;;;;;8.46;85.22;102736.97;5076470;28;20100;-89
2023/05/27 05:40:29;;;;;;;19.70;6.27;;;;;;;8.46;85.73;102731.78;5075415;28;20034;-88
2023/05/27 05:42:54;;;;;;;18.93;6.00;;;;;;;8.47;85.47;102730.97;5074467;28;20024;-87
2023/05/27 05:45:19;;;;;;;18.40;5.77;;;;;;;8.49;85.39;102718.09;5075832;28;20086;-87
2023/05/27 05:47:45;;;;;;;20.90;6.57;;;;;;;8.52;85.13;102728.50;5060369;28;20485;-86
2023/05/27 05:50:10;;;;;;;17.97;6.03;;;;;;;8.59;85.36;102725.25;5055839;28;20094;-87
2023/05/27 05:52:35;;;;;;;19.17;6.00;;;;;;;8.71;85.12;102728.94;5056091;28;20125;-88
2023/05/27 05:55:01;;;;;;;16.00;5.20;;;;;;;8.79;84.42;102717.91;5055827;28;20048;-88
2023/05/27 05:57:31;;;;;;;20.75;6.00;;;;;;;8.87;83.94;102718.06;5056292;28;20127;-87
2023/05/27 05:59:56;;;;;;;15.13;5.63;;;;;;;8.99;84.06;102714.91;5067478;28;20025;-88
2023/05/27 06:02:22;;;;;;;18.40;6.17;;;;;;;9.02;83.87;102717.53;5061117;28;20024;-88
2023/05/27 06:04:47;;;;;;;19.70;6.30;;;;;;;9.02;83.00;102707.16;5055347;28;20028;-87
2023/05/27 06:07:12;;;;;;;18.33;5.90;;;;;;;9.06;83.73;102701.22;5067570;28;20115;-88
2023/05/27 06:09:37;;;;;;;20.00;6.17;;;;;;;9.16;83.30;102707.47;5074509;28;20025;-88
2023/05/27 06:12:03;;;;;;;23.07;7.23;;;;;;;9.41;82.29;102707.94;5075538;28;20035;-88
2023/05/27 06:14:28;;;;;;;19.80;6.30;;;;;;;9.73;81.61;102703.38;5075294;28;20044;-87
2023/05/27 06:16:54;;;;;;;20.13;6.37;;;;;;;10.02;79.99;102704.75;5067124;28;20029;-86
2023/05/27 06:19:19;;;;;;;20.13;6.50;;;;;;;10.08;79.74;102709.16;5055118;28;20431;-88
2023/05/27 06:21:45;;;;;;;22.50;6.83;;;;;;;10.30;79.24;102706.06;5055093;28;20017;-87
2023/05/27 06:24:10;;;;;;;20.90;6.27;;;;;;;10.51;78.45;102709.88;5054967;28;20025;-87
2023/05/27 06:26:35;;;;;;;20.63;6.13;;;;;;;10.66;76.92;102698.81;5063827;28;20033;-87
2023/05/27 06:29:03;;;;;;;13.90;5.27;;;;;;;10.85;78.19;102699.97;5075625;28;20098;-87
2023/05/27 06:31:29;;;;;;;18.83;5.85;;;;;;;11.39;74.15;102694.53;5074012;28;20028;-85
2023/05/27 06:33:54;;;;;;;17.63;6.17;;;;;;;11.57;72.33;102696.47;5074423;28;20020;-84
2023/05/27 06:36:19;;;;;;;17.10;5.87;;;;;;;11.73;72.74;102695.78;5072565;28;20039;-86
2023/05/27 06:38:45;;;;;;;17.17;6.07;;;;;;;11.94;71.17;102690.72;5068486;28;20400;-86
2023/05/27 06:41:10;;;;;;;19.13;6.20;;;;;;;12.05;71.27;102695.22;5071904;28;20044;-84
2023/05/27 06:43:35;;;;;;;20.07;6.03;;;;;;;12.17;70.50;102690.97;5061069;28;20037;-84
2023/05/27 06:46:01;;;;;;;17.33;5.27;;;;;;;12.30;72.00;102690.19;5062440;28;20120;-89
2023/05/27 06:48:26;;;;;;;14.23;5.20;;;;;;;12.60;69.98;102695.59;5056133;28;20020;-87
2023/05/27 06:50:52;;;;;;;17.03;6.13;;;;;;;12.49;68.61;102691.22;5062337;28;20031;-87
2023/05/27 06:53:17;;;;;;;17.97;5.47;;;;;;;12.51;69.59;102693.81;5074435;28;20109;-87
2023/05/27 06:55:42;;;;;;;19.77;6.20;;;;;;;12.44;69.03;102687.69;5069589;28;20036;-85
2023/05/27 06:58:07;;;;;;;17.80;5.47;;;;;;;12.43;70.75;102687.69;5053950;28;20025;-86
2023/05/27 07:00:33;;;;;;;17.93;5.73;;;;;;;12.54;68.92;102683.41;5053968;28;20469;-86
2023/05/27 07:03:00;;;;;;;19.00;5.37;;;;;;;12.56;69.47;102689.47;5054064;28;20025;-85
2023/05/27 07:05:25;;;;;;;20.08;5.93;;;;;;;12.15;70.03;102690.97;5059126;28;20024;-79
2023/05/27 07:07:51;;;;;;;18.07;5.90;;;;;;;12.13;70.15;102683.97;5073008;28;20024;-85
2023/05/27 07:10:16;;;;;;;19.53;6.40;;;;;;;11.88;70.79;102682.03;5073751;28;20100;-85
2023/05/27 07:12:41;;;;;;;16.87;5.70;;;;;;;11.92;72.42;102669.06;5072677;28;20029;-86
2023/05/27 07:15:07;;;;;;;18.60;5.83;;;;;;;12.11;70.98;102677.88;5073251;28;20066;-86
2023/05/27 07:17:33;;;;;;;10.43;4.60;;;;;;;12.39;72.09;102681.56;5072654;28;20032;-85
2023/05/27 07:19:58;;;;;;;15.20;5.27;;;;;;;12.76;70.54;102679.19;5072781;28;20270;-86
2023/05/27 07:22:25;;;;;;;18.90;5.90;;;;;;;12.96;68.48;102678.38;5073249;28;20135;-85
2023/05/27 07:24:50;;;;;;;;;;;;;;;12.78;68.36;102685.28;5072993;28;20034;-86
2023/05/27 07:27:15;;;;;;;17.43;6.00;;;;;;;12.72;69.37;102669.59;5053249;28;20019;-86
2023/05/27 07:29:41;;;;;;;17.13;5.77;;;;;;;12.98;69.67;102668.84;5053117;28;20027;-85
2023/05/27 07:32:06;;;;;;;19.87;5.60;;;;;;;13.03;67.79;102672.34;5054204;28;20442;-85
2023/05/27 07:34:31;;;;;;;15.07;5.70;;;;;;;13.07;68.56;102673.22;5051936;28;20021;-85
2023/05/27 07:36:57;;;;;;;11.33;4.60;;;;;;;13.34;68.38;102674.19;5053766;28;20067;-85
2023/05/27 07:39:22;;;;;;;18.53;6.50;;;;;;;13.18;66.78;102660.22;5072145;28;20078;-84
2023/05/27 07:41:47;;;;;;;18.53;6.30;;;;;;;13.17;68.56;102661.13;5071701;28;20021;-85
2023/05/27 07:44:13;;;;;;;15.23;5.13;;;;;;;13.23;68.44;102648.94;5073067;28;20023;-85
2023/05/27 07:46:38;;;;;;;17.57;6.00;;;;;;;13.41;67.48;102653.34;5072841;28;20078;-85
2023/05/27 07:49:05;;;;;;;18.37;6.30;;;;;;;13.31;67.46;102651.56;5072121;28;20024;-85
2023/05/27 07:51:31;;;;;;;14.48;5.10;;;;;;;13.52;67.69;102653.38;5073055;28;20115;-83
2023/05/27 07:53:56;;;;;;;15.15;5.57;;;;;;;13.53;67.04;102649.03;5072917;28;20028;-84
2023/05/27 07:56:22;;;;;;;17.17;6.03;;;;;;;13.57;66.80;102643.81;5064464;28;20035;-88
2023/05/27 07:58:47;;;;;;;16.37;5.50;;;;;;;13.75;66.30;102645.56;5053123;28;20037;-87
2023/05/27 08:01:12;;;;;;;18.93;6.33;;;;;;;13.76;66.00;102643.84;5054526;28;20530;-88
2023/05/27 08:03:38;;;;;;;18.17;6.37;;;;;;;13.72;66.32;102642.97;5062480;28;20028;-88
2023/05/27 08:06:03;;;;;;;16.57;6.17;;;;;;;13.81;66.07;102642.09;5073879;28;20056;-89
2023/05/27 08:08:28;;;;;;;20.10;6.73;;;;;;;13.94;65.33;102635.16;5072735;28;20032;-89
2023/05/27 08:10:54;;;;;;;15.50;5.87;;;;;;;14.14;64.97;102642.06;5073936;28;20028;-88
2023/05/27 08:13:19;;;;;;;14.80;5.80;;;;;;;14.05;65.94;102633.38;5073972;28;20111;-88
2023/05/27 08:15:47;;;;;;;15.23;5.43;;;;;;;14.31;64.42;102631.59;5073106;28;20126;-88
2023/05/27 08:18:13;;;;;;;20.45;6.25;;;;;;;14.47;64.78;102635.03;5074176;28;20389;-88
2023/05/27 08:20:39;;;;;;;16.77;6.07;;;;;;;14.30;63.69;102628.09;5074329;28;20036;-89
2023/05/27 08:23:05;;;;;;;16.80;6.35;;;;;;;14.19;64.16;102614.19;5073592;28;20020;-88
2023/05/27 08:25:30;;;;;;;19.93;6.70;;;;;;;14.15;64.79;102615.09;5073330;28;20469;-88
2023/05/27 08:28:01;;;;;;;16.37;5.83;;;;;;;14.30;64.78;102614.19;5074503;28;20024;-88
2023/05/27 08:30:27;;;;;;;16.63;5.90;;;;;;;14.51;63.71;102610.66;5072820;28;20056;-88
2023/05/27 08:32:53;;;;;;;18.23;6.03;;;;;;;14.51;63.75;102600.19;5073122;28;20028;-88
2023/05/27 08:35:18;;;;;;;18.70;6.33;;;;;;;14.50;62.36;102598.47;5074687;28;20043;-87
2023/05/27 08:37:43;;;;;;;19.10;6.93;;;;;;;14.53;63.75;102595.81;5072452;28;20366;-88
2023/05/27 08:40:17;;;;;;;18.00;6.30;;;;;;;14.60;62.22;102594.03;5073542;28;20116;-88
2023/05/27 08:42:43;;;;;;;19.70;6.93;;;;;;;14.76;62.73;102594.88;5072878;28;20020;-88
2023/05/27 08:45:09;;;;;;;22.33;7.47;;;;;;;14.87;61.66;102582.63;5072141;28;20103;-89
2023/05/27 08:47:35;;;;;;;15.15;5.82;;;;;;;15.13;63.30;102577.25;5073055;28;20039;-87
2023/05/27 08:50:01;;;;;;;11.63;5.00;;;;;;;15.55;61.89;102581.31;5073971;28;20024;-88
2023/05/27 08:52:29;;;;;;;14.70;5.55;;;;;;;15.75;60.55;102584.59;5072603;28;20028;-88
2023/05/27 08:54:57;;;;;;;13.65;5.07;;;;;;;15.89;58.18;102583.66;5073864;28;20104;-88
2023/05/27 08:57:28;;;;;;;16.75;6.30;;;;;;;15.90;58.49;102580.16;5073371;28;20025;-89
2023/05/27 08:59:53;;;;;;;19.00;6.32;;;;;;;15.87;59.72;102577.56;5073502;28;20117;-88
2023/05/27 09:02:20;;;;;;;15.00;6.37;;;;;;;15.96;58.07;102577.44;5073076;28;20207;-88
2023/05/27 09:04:46;;;;;;;17.70;6.25;;;;;;;15.96;60.05;102574.84;5072342;28;20028;-89
2023/05/27 09:07:12;;;;;;;19.02;6.63;;;;;;;16.12;57.51;102572.91;5072465;28;20051;-88
2023/05/27 09:09:38;;;;;;;16.80;6.43;;;;;;;16.19;57.38;102566.75;5075585;28;20418;-88
2023/05/27 09:12:05;;;;;;;18.98;6.65;;;;;;;16.33;57.13;102566.56;5075795;28;20024;-89
2023/05/27 09:14:31;;;;;;;17.50;6.10;;;;;;;16.47;57.98;102558.53;5076208;28;20131;-90
2023/05/27 09:16:57;;;;;;;18.05;6.07;;;;;;;16.48;57.68;102552.41;5077616;28;20021;-89
2023/05/27 09:19:25;;;;;;;15.97;5.77;;;;;;;16.75;57.59;102546.81;5076617;28;20031;-89
2023/05/27 09:21:55;;;;;;;16.73;6.03;;;;;;;16.96;57.46;102551.78;5077157;28;20036;-89
2023/05/27 09:24:23;;;;;;;12.23;4.50;;;;;;;17.25;59.08;102539.97;5076508;28;20025;-89
2023/05/27 09:26:50;;;;;;;10.68;4.15;;;;;;;17.69;54.91;102547.97;5075590;28;20028;-90
2023/05/27 09:29:18;;;;;;;15.05;5.32;;;;;;;17.98;55.76;102541.34;5076660;28;20028;-90
2023/05/27 09:31:44;;;;;;;12.32;4.70;;;;;;;18.15;55.45;102529.63;5076623;28;20077;-91
2023/05/27 09:34:15;;;;;;;17.02;6.25;;;;;;;18.17;50.73;102535.72;5075148;28;20118;-88
2023/05/27 09:36:50;;;;;;;14.18;5.28;;;;;;;18.06;52.55;102534.19;5076076;28;20025;-89
2023/05/27 09:39:18;;;;;;;13.30;5.20;;;;;;;18.06;53.42;102528.06;5076629;28;20492;-89
2023/05/27 09:41:49;;;;;;;16.95;6.32;;;;;;;17.98;51.83;102528.22;5075703;28;20025;-89
2023/05/27 09:44:15;;;;;;;14.18;5.13;;;;;;;18.03;54.22;102526.34;5076622;28;20431;-89
2023/05/27 09:46:43;;;;;;;11.48;4.65;;;;;;;18.37;52.40;102528.28;5075145;28;20472;-89
2023/05/27 09:49:09;;;;;;;15.77;6.00;;;;;;;18.31;49.82;102522.28;5076208;28;20037;-89
2023/05/27 09:51:36;;;;;;;15.35;5.50;;;;;;;18.31;51.25;102528.44;5076277;28;20074;-89
2023/05/27 09:54:01;;;;;;;19.42;6.50;;;;;;;18.16;49.80;102518.22;5075153;28;20028;-88
2023/05/27 09:56:30;;;;;;;13.60;5.13;;;;;;;18.35;52.35;102516.06;5076210;28;20039;-89
2023/05/27 09:58:56;;;;;;;14.15;5.55;;;;;;;18.48;49.09;102506.16;5075825;28;20028;-91
2023/05/27 10:01:25;;;;;;;15.50;5.38;;;;;;;18.60;50.86;102515.53;5075142;28;20052;-88
2023/05/27 10:03:51;;;;;;;16.73;5.85;;;;;;;18.50;49.34;102507.88;5065750;28;20035;-88
2023/05/27 10:06:17;;;;;;;11.93;4.35;;;;;;;18.66;50.89;102508.38;5075562;28;20029;-89
2023/05/27 10:08:43;;;;;;;12.80;4.20;;;;;;;18.79;51.47;102505.47;5074641;28;20404;-89
2023/05/27 10:11:10;;;;;;;12.10;4.03;;;;;;;18.90;50.52;102508.72;5075619;28;20079;-89
2023/05/27 10:13:36;;;;;;;14.07;4.22;;;;;;;18.91;48.04;102507.81;5075012;28;20058;-88
2023/05/27 10:16:02;;;;;;;14.73;5.27;;;;;;;18.68;49.52;102490.81;5075473;28;20053;-89
2023/05/27 10:18:29;;;;;;;16.17;5.70;;;;;;;18.41;48.11;102500.16;5076008;28;20025;-88
2023/05/27 10:20:57;;;;;;;16.60;5.90;;;;;;;17.68;47.68;102495.50;5075194;28;20048;-89
2023/05/27 10:23:30;;;;;;;14.95;4.90;;;;;;;17.77;49.69;102495.31;5075335;28;20469;-90
2023/05/27 10:26:07;;;;;;;18.15;6.00;;;;;;;17.57;49.32;102493.06;5056209;28;20040;-88
2023/05/27 10:28:39;;;;;;;14.65;5.03;;;;;;;17.62;50.44;102488.59;5055914;28;20025;-89
2023/05/27 10:31:14;;;;;;;11.75;4.10;;;;;;;17.78;51.78;102481.28;5055567;28;20033;-90
2023/05/27 10:33:42;;;;;;;13.50;4.78;;;;;;;17.92;50.43;102496.78;5055526;28;20442;-89
2023/05/27 10:36:10;;;;;;;16.60;4.80;;;;;;;17.91;50.95;102482.78;5055666;28;20465;-89
2023/05/27 10:38:36;;;;;;;15.95;5.32;;;;;;;17.85;50.17;102474.16;5055704;28;20036;-90
2023/05/27 10:41:03;;;;;;;17.20;5.60;;;;;;;18.02;50.69;102469.44;5055854;28;20049;-90
2023/05/27 10:43:33;;;;;;;20.15;5.97;;;;;;;18.06;50.55;102479.00;5055086;28;20028;-90
2023/05/27 10:46:02;;;;;;;14.90;4.93;;;;;;;18.18;48.93;102477.03;5055471;28;20033;-90
2023/05/27 10:48:30;;;;;;;13.75;4.75;;;;;;;18.47;49.84;102472.88;5055498;28;20045;-89
2023/05/27 10:50:58;;;;;;;11.10;4.07;;;;;;;18.83;47.09;102468.53;5055366;28;20056;-90
2023/05/27 10:53:26;;;;;;;12.07;3.90;;;;;;;19.14;49.39;102470.44;5055682;28;20361;-91
2023/05/27 10:55:51;;;;;;;11.13;3.75;;;;;;;19.53;47.25;102458.88;5055460;28;20021;-90
2023/05/27 10:58:18;;;;;;;11.73;3.80;;;;;;;19.84;47.95;102446.63;5055496;28;20021;-89
2023/05/27 11:00:50;;;;;;;;;;;;;;;20.12;44.69;102444.06;5056005;28;20024;-90
2023/05/27 11:03:21;;;;;;;14.13;4.68;;;;;;;19.96;43.67;102440.16;5055263;28;19912;-89
2023/05/27 11:05:55;;;;;;;12.70;3.75;;;;;;;20.11;45.97;102439.72;5054005;28;20033;-90
2023/05/27 11:08:21;;;;;;;10.65;3.70;;;;;;;20.44;46.80;102438.69;5054932;28;20061;-90
2023/05/27 11:10:46;;;;;;;15.60;5.10;;;;;;;20.58;42.13;102440.91;5055129;28;20512;-89
2023/05/27 11:13:11;;;;;;;12.67;3.90;;;;;;;20.65;43.56;102427.47;5054617;28;20025;-90
2023/05/27 11:15:40;;;;;;;13.90;4.00;;;;;;;20.77;45.22;102422.75;5054959;28;20546;-90
2023/05/27 11:18:07;;;;;;;12.43;4.13;;;;;;;20.96;43.44;102420.31;5054737;28;20025;-91
2023/05/27 11:20:37;;;;;;;12.30;3.90;;;;;;;20.96;42.52;102422.97;5055487;28;20021;-91
2023/05/27 11:23:02;;;;;;;12.30;3.70;;;;;;;20.97;40.13;102408.84;5055141;28;20021;-84